Time;durP1;ratioP1;P1;durP2;ratioP2;P2;SDS_P1;SDS_P2;PMS_P1;PMS_P2;Temp;Humidity;BMP_temperature;BMP_pressure;BME280_temperature;BME280_humidity;BME280_pressure;Samples;Min_cycle;Max_cycle;Signal;HPM_P1;HPM_P2
2023/07/08 00:02:01;;;;;;;3.97;2.07;;;22.20;63.50;;;;;;5075024;28;20448;-77
2023/07/08 00:04:27;;;;;;;5.90;2.13;;;22.20;63.70;;;;;;5074989;28;20467;-77
2023/07/08 00:06:54;;;;;;;4.90;1.90;;;22.10;63.50;;;;;;5074960;28;20444;-77
2023/07/08 00:09:21;;;;;;;4.20;1.70;;;22.10;64.20;;;;;;5074814;28;20470;-77
2023/07/08 00:11:47;;;;;;;3.70;1.90;;;22.10;63.60;;;;;;5074544;28;20988;-77
2023/07/08 00:14:14;;;;;;;3.50;1.97;;;22.10;63.70;;;;;;5074696;28;20459;-77
2023/07/08 00:16:41;;;;;;;3.70;1.83;;;22.10;64.30;;;;;;5074729;28;20444;-77
2023/07/08 00:19:11;;;;;;;4.37;2.00;;;22.00;64.40;;;;;;5074294;28;20991;-77
2023/07/08 00:21:37;;;;;;;3.53;2.00;;;22.00;64.50;;;;;;5074265;28;20456;-77
2023/07/08 00:24:05;;;;;;;2.93;2.30;;;22.00;64.40;;;;;;5074271;28;20440;-77
2023/07/08 00:26:32;;;;;;;3.37;2.50;;;22.00;64.20;;;;;;5074572;28;20443;-77
2023/07/08 00:28:59;;;;;;;3.30;2.37;;;22.00;64.80;;;;;;5074055;28;20479;-77
2023/07/08 00:31:26;;;;;;;5.37;2.10;;;22.00;65.00;;;;;;5074417;28;20455;-77
2023/07/08 00:33:55;;;;;;;4.47;2.87;;;21.90;65.20;;;;;;5074419;28;20444;-77
2023/07/08 00:36:25;;;;;;;2.93;2.10;;;21.90;66.00;;;;;;5073671;28;20480;-77
2023/07/08 00:38:52;;;;;;;3.87;2.43;;;21.90;65.00;;;;;;5073591;28;20465;-77
2023/07/08 00:41:23;;;;;;;5.57;2.23;;;21.80;66.90;;;;;;5074239;28;20444;-77
2023/07/08 00:43:52;;;;;;;3.80;2.80;;;21.80;64.70;;;;;;5073932;28;20424;-77
2023/07/08 00:46:32;;;;;;;3.17;2.40;;;21.80;64.50;;;;;;5073829;28;20443;-77
2023/07/08 00:49:08;;;;;;;4.80;3.00;;;21.80;65.40;;;;;;5074069;28;20468;-77
2023/07/08 00:51:39;;;;;;;5.37;2.90;;;21.80;65.20;;;;;;5074081;28;20440;-77
2023/07/08 00:54:06;;;;;;;2.80;2.27;;;21.70;66.50;;;;;;5074015;28;20428;-77
2023/07/08 00:56:35;;;;;;;2.90;1.60;;;21.70;67.80;;;;;;5073587;28;20476;-77
2023/07/08 00:59:07;;;;;;;5.00;2.10;;;21.70;69.30;;;;;;5073860;28;20460;-77
2023/07/08 01:01:37;;;;;;;3.43;1.80;;;21.60;69.70;;;;;;5073641;28;20450;-77
2023/07/08 01:04:10;;;;;;;5.03;2.00;;;21.50;69.60;;;;;;5074654;28;20452;-77
2023/07/08 01:06:42;;;;;;;4.57;2.23;;;21.40;71.40;;;;;;5073532;28;20784;-77
2023/07/08 01:09:13;;;;;;;5.47;2.30;;;21.30;72.50;;;;;;5073745;28;20467;-77
2023/07/08 01:11:41;;;;;;;3.67;2.27;;;21.20;73.50;;;;;;5073766;28;20428;-77
2023/07/08 01:14:11;;;;;;;3.70;2.50;;;21.10;73.60;;;;;;5073715;28;20452;-77
2023/07/08 01:16:38;;;;;;;4.80;2.37;;;20.90;74.00;;;;;;5073664;28;20471;-77
2023/07/08 01:19:08;;;;;;;5.13;1.73;;;20.80;74.50;;;;;;5073580;28;20468;-77
2023/07/08 01:21:38;;;;;;;2.10;1.63;;;20.80;74.00;;;;;;5073326;28;20954;-77
2023/07/08 01:24:09;;;;;;;4.07;2.03;;;20.70;74.50;;;;;;5074681;28;20791;-77
2023/07/08 01:26:39;;;;;;;4.13;2.00;;;20.60;75.10;;;;;;5073288;28;20900;-77
2023/07/08 01:29:07;;;;;;;6.20;2.17;;;20.60;75.60;;;;;;5073101;28;20477;-77
2023/07/08 01:31:34;;;;;;;3.97;2.27;;;20.50;75.70;;;;;;5073190;28;21001;-77
2023/07/08 01:34:01;;;;;;;4.53;1.73;;;20.50;74.40;;;;;;5073485;28;20448;-77
2023/07/08 01:36:32;;;;;;;3.40;1.80;;;20.40;73.90;;;;;;5073934;28;20480;-77
2023/07/08 01:38:59;;;;;;;2.07;1.80;;;20.40;73.90;;;;;;5073377;28;20472;-77
2023/07/08 01:41:27;;;;;;;3.60;1.70;;;20.30;73.60;;;;;;5073091;28;20820;-77
2023/07/08 01:43:54;;;;;;;5.90;1.70;;;20.30;72.20;;;;;;5073397;28;20440;-77
2023/07/08 01:46:24;;;;;;;3.57;2.20;;;20.30;73.60;;;;;;5073027;28;20932;-77
2023/07/08 01:48:54;;;;;;;5.10;2.37;;;20.30;74.80;;;;;;5072895;28;20469;-77
2023/07/08 01:51:21;;;;;;;4.40;2.30;;;20.30;71.70;;;;;;5073046;28;20428;-77
2023/07/08 01:53:48;;;;;;;4.07;2.50;;;20.40;72.70;;;;;;5073250;28;20452;-77
2023/07/08 01:56:16;;;;;;;2.60;2.03;;;20.40;74.70;;;;;;5073712;28;20480;-77
2023/07/08 01:58:44;;;;;;;2.30;1.77;;;20.40;76.10;;;;;;5073088;28;20495;-77
2023/07/08 02:01:11;;;;;;;4.27;2.10;;;20.30;75.60;;;;;;5073177;28;20451;-77
2023/07/08 02:03:38;;;;;;;3.07;1.73;;;20.30;74.90;;;;;;5073178;28;20440;-77
2023/07/08 02:06:06;;;;;;;3.37;2.57;;;20.30;74.80;;;;;;5072832;28;20809;-77
2023/07/08 02:08:33;;;;;;;4.70;2.73;;;20.20;74.40;;;;;;5073075;28;20449;-77
2023/07/08 02:11:00;;;;;;;3.47;1.80;;;20.20;74.90;;;;;;5072796;28;20936;-77
2023/07/08 02:13:27;;;;;;;2.10;1.60;;;20.20;75.20;;;;;;5073086;28;20444;-77
2023/07/08 02:15:55;;;;;;;4.10;1.83;;;20.20;75.80;;;;;;5072983;28;20484;-77
2023/07/08 02:18:24;;;;;;;3.03;1.60;;;20.10;76.20;;;;;;5072988;28;20451;-77
2023/07/08 02:20:51;;;;;;;3.13;1.27;;;20.10;76.70;;;;;;5072695;28;20813;-77
2023/07/08 02:23:19;;;;;;;2.77;1.53;;;20.00;76.80;;;;;;5072993;28;20449;-77
2023/07/08 02:25:52;;;;;;;3.30;1.80;;;20.00;77.00;;;;;;5072622;28;20452;-77
2023/07/08 02:28:18;;;;;;;2.20;1.40;;;20.00;76.50;;;;;;5072610;28;20510;-77
2023/07/08 02:30:46;;;;;;;3.10;2.07;;;20.00;77.30;;;;;;5072594;28;20941;-77
2023/07/08 02:33:14;;;;;;;1.83;1.70;;;20.00;75.90;;;;;;5072865;28;20444;-77
2023/07/08 02:35:41;;;;;;;3.73;1.97;;;20.00;76.80;;;;;;5072808;28;20512;-77
2023/07/08 02:38:08;;;;;;;7.73;2.67;;;20.00;77.80;;;;;;5072516;28;20966;-77
2023/07/08 02:40:35;;;;;;;3.03;2.20;;;20.00;78.10;;;;;;5072441;28;20988;-77
2023/07/08 02:43:01;;;;;;;3.60;1.60;;;20.00;78.20;;;;;;5072453;28;20963;-77
2023/07/08 02:45:28;;;;;;;3.30;1.80;;;20.00;79.10;;;;;;5072461;28;20963;-77
2023/07/08 02:47:55;;;;;;;4.10;2.20;;;20.00;75.80;;;;;;5072740;28;20456;-77
2023/07/08 02:50:24;;;;;;;4.20;1.70;;;19.90;74.60;;;;;;5072656;28;20464;-77
2023/07/08 02:52:51;;;;;;;3.87;2.43;;;20.00;74.70;;;;;;5072703;28;20452;-77
2023/07/08 02:55:18;;;;;;;3.13;1.77;;;20.00;74.80;;;;;;5072361;28;20429;-77
2023/07/08 02:57:44;;;;;;;2.20;1.60;;;20.10;75.60;;;;;;5072624;28;20471;-77
2023/07/08 03:00:13;;;;;;;3.20;2.03;;;20.10;75.90;;;;;;5072723;28;20471;-77
2023/07/08 03:02:40;;;;;;;5.10;2.43;;;20.10;75.70;;;;;;5076110;28;20444;-77
2023/07/08 03:05:07;;;;;;;2.73;1.53;;;20.10;76.40;;;;;;5076108;28;20449;-77
2023/07/08 03:07:35;;;;;;;2.83;2.00;;;20.10;77.20;;;;;;5075740;28;20509;-77
2023/07/08 03:10:02;;;;;;;4.00;2.20;;;20.00;76.40;;;;;;5075962;28;20468;-77
2023/07/08 03:12:29;;;;;;;4.80;1.83;;;20.00;77.10;;;;;;5075972;28;20445;-77
2023/07/08 03:14:56;;;;;;;6.37;2.47;;;20.00;77.70;;;;;;5075678;28;20905;-77
2023/07/08 03:17:23;;;;;;;5.93;2.40;;;19.90;78.20;;;;;;5075814;28;20490;-77
2023/07/08 03:19:50;;;;;;;3.70;2.03;;;19.90;76.90;;;;;;5075462;28;21010;-77
2023/07/08 03:22:16;;;;;;;2.23;2.10;;;19.90;78.00;;;;;;5075844;28;20449;-77
2023/07/08 03:24:46;;;;;;;2.40;2.13;;;19.80;78.40;;;;;;5075753;28;20475;-77
2023/07/08 03:27:13;;;;;;;2.63;1.97;;;19.80;78.20;;;;;;5075639;28;20463;-77
2023/07/08 03:29:40;;;;;;;6.53;3.13;;;19.70;78.00;;;;;;5075244;28;20491;-77
2023/07/08 03:32:09;;;;;;;5.80;1.77;;;19.70;78.20;;;;;;5075581;28;20451;-77
2023/07/08 03:34:36;;;;;;;2.10;1.73;;;19.70;79.30;;;;;;5075591;28;20802;-77
2023/07/08 03:37:03;;;;;;;4.67;1.70;;;19.60;78.80;;;;;;5075499;28;20520;-77
2023/07/08 03:39:31;;;;;;;2.57;2.00;;;19.50;79.00;;;;;;5075396;28;20465;-78
2023/07/08 03:41:59;;;;;;;2.83;2.57;;;19.50;79.10;;;;;;5075461;28;20900;-77
2023/07/08 03:44:26;;;;;;;5.77;1.80;;;19.50;79.30;;;;;;5075071;28;20449;-77
2023/07/08 03:46:53;;;;;;;4.30;2.10;;;19.50;78.40;;;;;;5075311;28;20445;-77
2023/07/08 03:49:22;;;;;;;7.77;2.53;;;19.50;79.00;;;;;;5075270;28;20460;-77
2023/07/08 03:51:49;;;;;;;4.50;1.97;;;19.60;79.40;;;;;;5075263;28;20455;-77
2023/07/08 03:54:16;;;;;;;3.20;1.93;;;19.60;79.40;;;;;;5074918;28;20940;-77
2023/07/08 03:56:43;;;;;;;3.43;1.43;;;19.60;80.00;;;;;;5074735;28;20995;-77
2023/07/08 03:59:11;;;;;;;3.93;2.00;;;19.70;79.60;;;;;;5075048;28;20475;-77
2023/07/08 04:01:40;;;;;;;2.17;1.70;;;19.70;79.60;;;;;;5075091;28;20453;-77
2023/07/08 04:04:07;;;;;;;3.87;1.90;;;19.80;79.90;;;;;;5075015;28;20445;-78
2023/07/08 04:06:34;;;;;;;3.37;1.90;;;19.90;77.90;;;;;;5074946;28;20448;-78
2023/07/08 04:09:01;;;;;;;7.13;1.57;;;20.00;78.10;;;;;;5074841;28;20860;-78
2023/07/08 04:11:28;;;;;;;3.10;2.00;;;20.10;78.30;;;;;;5074609;28;20456;-78
2023/07/08 04:13:54;;;;;;;4.60;2.23;;;20.20;79.00;;;;;;5074837;28;20543;-78
2023/07/08 04:16:27;;;;;;;6.33;2.50;;;20.30;79.40;;;;;;5074403;28;21031;-78
2023/07/08 04:18:55;;;;;;;3.03;1.53;;;20.40;80.50;;;;;;5074656;28;20479;-78
2023/07/08 04:21:23;;;;;;;1.57;1.40;;;20.40;80.60;;;;;;5074638;28;20514;-78
2023/07/08 04:23:50;;;;;;;4.67;2.87;;;20.50;80.60;;;;;;5075108;28;20474;-78
2023/07/08 04:26:18;;;;;;;1.47;1.33;;;20.50;80.50;;;;;;5074196;28;20441;-79
2023/07/08 04:28:45;;;;;;;3.70;2.10;;;20.50;81.00;;;;;;5074174;28;20488;-78
2023/07/08 04:31:12;;;;;;;3.93;2.40;;;20.50;82.60;;;;;;5074893;28;20889;-77
2023/07/08 04:33:40;;;;;;;2.80;2.37;;;20.50;83.50;;;;;;5074420;28;20448;-77
2023/07/08 04:36:13;;;;;;;3.53;2.33;;;20.50;84.20;;;;;;5073968;28;20476;-78
2023/07/08 04:38:41;;;;;;;5.83;1.70;;;20.60;82.10;;;;;;5073962;28;20809;-78
2023/07/08 04:41:07;;;;;;;3.73;2.37;;;20.60;80.00;;;;;;5074251;28;20448;-78
2023/07/08 04:43:34;;;;;;;9.40;3.10;;;20.60;79.00;;;;;;5073900;28;20940;-78
2023/07/08 04:46:01;;;;;;;4.23;2.27;;;20.70;79.40;;;;;;5074080;28;20448;-78
2023/07/08 04:48:28;;;;;;;11.57;3.10;;;20.70;77.90;;;;;;5074079;28;20451;-78
2023/07/08 04:50:57;;;;;;;2.57;1.70;;;20.80;78.60;;;;;;5074119;28;20465;-78
2023/07/08 04:53:24;;;;;;;5.50;2.03;;;20.90;81.00;;;;;;5074094;28;20448;-78
2023/07/08 04:55:54;;;;;;;4.87;2.17;;;20.90;82.00;;;;;;5073953;28;20445;-78
2023/07/08 04:58:21;;;;;;;5.00;2.07;;;20.90;83.00;;;;;;5073958;28;20433;-78
2023/07/08 05:00:48;;;;;;;7.30;2.17;;;20.90;82.20;;;;;;5073944;28;20471;-78
2023/07/08 05:03:15;;;;;;;1.67;1.43;;;20.90;80.30;;;;;;5073928;28;20539;-78
2023/07/08 05:05:42;;;;;;;3.33;2.03;;;20.90;80.20;;;;;;5073902;28;20440;-78
2023/07/08 05:08:10;;;;;;;2.50;1.70;;;20.90;78.70;;;;;;5073468;28;20943;-78
2023/07/08 05:10:37;;;;;;;3.50;2.17;;;20.90;78.70;;;;;;5073572;28;20468;-78
2023/07/08 05:13:04;;;;;;;4.07;2.30;;;21.00;78.70;;;;;;5073451;28;20963;-78
2023/07/08 05:15:30;;;;;;;3.23;1.60;;;21.10;79.40;;;;;;5073421;28;20448;-78
2023/07/08 05:17:57;;;;;;;3.10;1.70;;;21.10;80.10;;;;;;5073545;28;20480;-78
2023/07/08 05:20:24;;;;;;;1.93;1.33;;;21.10;80.60;;;;;;5073551;28;20834;-79
2023/07/08 05:22:51;;;;;;;4.70;2.70;;;21.10;79.60;;;;;;5073215;28;20448;-79
2023/07/08 05:25:20;;;;;;;4.73;2.37;;;21.20;78.80;;;;;;5073354;28;20456;-78
2023/07/08 05:27:47;;;;;;;3.80;2.07;;;21.30;79.50;;;;;;5073273;28;20447;-78
2023/07/08 05:30:16;;;;;;;2.70;1.80;;;21.40;80.20;;;;;;5072998;28;20541;-78
2023/07/08 05:32:43;;;;;;;3.00;1.97;;;21.50;80.30;;;;;;5073501;28;20893;-78
2023/07/08 05:35:10;;;;;;;5.13;2.50;;;21.60;79.80;;;;;;5073438;28;20445;-78
2023/07/08 05:37:39;;;;;;;2.70;2.20;;;21.60;78.60;;;;;;5073367;28;20501;-78
2023/07/08 05:40:07;;;;;;;2.30;1.80;;;21.70;79.30;;;;;;5073346;28;20477;-78
2023/07/08 05:42:36;;;;;;;3.80;1.80;;;21.70;79.50;;;;;;5073402;28;20476;-78
2023/07/08 05:45:03;;;;;;;6.40;1.90;;;21.80;79.20;;;;;;5073044;28;20827;-78
2023/07/08 05:47:29;;;;;;;2.40;1.73;;;21.90;79.70;;;;;;5073323;28;20447;-78
2023/07/08 05:49:56;;;;;;;3.90;2.00;;;21.90;78.70;;;;;;5072951;28;21026;-78
2023/07/08 05:52:23;;;;;;;3.87;2.10;;;22.00;79.10;;;;;;5073285;28;20448;-78
2023/07/08 05:54:49;;;;;;;3.20;1.80;;;22.10;79.70;;;;;;5073280;28;20448;-78
2023/07/08 05:57:16;;;;;;;4.73;2.80;;;22.10;79.20;;;;;;5073158;28;20475;-78
2023/07/08 05:59:44;;;;;;;2.00;1.80;;;22.20;79.70;;;;;;5073154;28;20468;-78
2023/07/08 06:02:12;;;;;;;2.57;1.70;;;22.30;79.10;;;;;;5073197;28;20834;-78
2023/07/08 06:04:39;;;;;;;2.73;1.40;;;22.20;79.70;;;;;;5072873;28;21095;-78
2023/07/08 06:07:06;;;;;;;6.67;2.03;;;22.10;79.10;;;;;;5072828;28;20817;-78
2023/07/08 06:09:33;;;;;;;3.77;1.90;;;22.20;79.90;;;;;;5073063;28;20475;-78
2023/07/08 06:12:00;;;;;;;3.57;2.03;;;22.20;81.20;;;;;;5072789;28;20459;-78
2023/07/08 06:14:27;;;;;;;3.97;2.37;;;22.30;81.00;;;;;;5073050;28;20793;-78
2023/07/08 06:16:55;;;;;;;2.63;1.53;;;22.40;81.30;;;;;;5072648;28;21006;-78
2023/07/08 06:19:22;;;;;;;4.33;2.20;;;22.50;81.70;;;;;;5072628;28;20980;-78
2023/07/08 06:21:49;;;;;;;4.57;2.30;;;22.60;80.80;;;;;;5073016;28;20443;-78
2023/07/08 06:24:16;;;;;;;2.93;1.67;;;22.60;80.80;;;;;;5072672;28;20936;-78
2023/07/08 06:26:43;;;;;;;2.00;1.67;;;22.50;80.90;;;;;;5072943;28;20451;-78
2023/07/08 06:29:09;;;;;;;3.17;2.20;;;22.40;80.80;;;;;;5072512;28;20495;-78
2023/07/08 06:31:36;;;;;;;3.90;2.70;;;22.40;81.60;;;;;;5072578;28;20944;-78
2023/07/08 06:34:04;;;;;;;4.77;2.47;;;22.30;81.40;;;;;;5072897;28;20218;-78
2023/07/08 06:36:31;;;;;;;1.87;1.37;;;22.30;81.80;;;;;;5076570;28;20452;-78
2023/07/08 06:38:58;;;;;;;3.00;1.80;;;22.40;81.80;;;;;;5076593;28;20222;-78
2023/07/08 06:41:25;;;;;;;3.83;1.87;;;22.60;82.20;;;;;;5076466;28;20448;-77
2023/07/08 06:43:52;;;;;;;3.57;2.20;;;22.70;82.50;;;;;;5076434;28;20206;-78
2023/07/08 06:46:19;;;;;;;4.43;1.60;;;22.80;82.60;;;;;;5076493;28;20285;-78
2023/07/08 06:48:46;;;;;;;2.10;1.47;;;22.90;83.40;;;;;;5076096;28;20518;-78
2023/07/08 06:51:14;;;;;;;3.70;1.50;;;23.10;82.60;;;;;;5076932;28;20202;-78
2023/07/08 06:53:41;;;;;;;3.70;1.87;;;23.10;82.00;;;;;;5076368;28;20213;-78
2023/07/08 06:56:08;;;;;;;4.27;2.03;;;23.20;82.30;;;;;;5076092;28;20662;-78
2023/07/08 06:58:35;;;;;;;2.73;2.00;;;23.10;82.60;;;;;;5076198;28;20590;-78
2023/07/08 07:01:02;;;;;;;3.80;2.03;;;23.00;82.80;;;;;;5076230;28;20206;-78
2023/07/08 07:03:28;;;;;;;3.93;1.70;;;23.00;83.70;;;;;;5076208;28;20576;-78
2023/07/08 07:05:55;;;;;;;1.50;1.33;;;23.00;84.30;;;;;;5075831;28;20950;-78
2023/07/08 07:08:23;;;;;;;2.60;1.90;;;23.00;84.90;;;;;;5075996;28;20198;-78
2023/07/08 07:10:50;;;;;;;5.47;2.97;;;23.00;84.60;;;;;;5075749;28;20209;-78
2023/07/08 07:13:17;;;;;;;3.00;1.93;;;23.00;84.40;;;;;;5076079;28;20187;-78
2023/07/08 07:15:43;;;;;;;1.87;1.70;;;23.10;84.80;;;;;;5075997;28;20227;-78
2023/07/08 07:18:10;;;;;;;2.87;2.23;;;23.30;85.80;;;;;;5075841;28;20218;-78
2023/07/08 07:20:38;;;;;;;3.63;2.10;;;23.30;86.20;;;;;;5075779;28;20229;-78
2023/07/08 07:23:05;;;;;;;2.77;1.23;;;23.30;85.60;;;;;;5075879;28;20213;-78
2023/07/08 07:25:33;;;;;;;5.13;1.90;;;23.30;85.90;;;;;;5075842;28;20523;-78
2023/07/08 07:28:00;;;;;;;2.35;1.30;;;23.20;86.10;;;;;;5075547;28;20198;-78
2023/07/08 07:30:27;;;;;;;2.70;1.80;;;23.30;85.50;;;;;;5075384;28;20218;-78
2023/07/08 07:32:54;;;;;;;2.60;1.70;;;23.30;85.10;;;;;;5075619;28;20210;-78
2023/07/08 07:35:22;;;;;;;3.57;2.03;;;23.30;86.20;;;;;;5075264;28;20583;-78
2023/07/08 07:37:49;;;;;;;3.37;2.30;;;23.30;86.40;;;;;;5075502;28;20222;-78
2023/07/08 07:40:16;;;;;;;1.73;1.57;;;23.30;87.10;;;;;;5075137;28;20225;-78
2023/07/08 07:42:46;;;;;;;1.57;1.47;;;23.40;87.50;;;;;;5075486;28;20209;-78
2023/07/08 07:45:14;;;;;;;2.50;1.93;;;23.40;87.60;;;;;;5075463;28;20193;-78
2023/07/08 07:47:41;;;;;;;1.50;1.13;;;23.50;87.00;;;;;;5074718;28;20201;-78
2023/07/08 07:50:09;;;;;;;2.50;1.30;;;23.60;86.50;;;;;;5074936;28;20601;-78
2023/07/08 07:52:36;;;;;;;2.20;1.73;;;23.70;86.60;;;;;;5074975;28;20202;-79
2023/07/08 07:55:03;;;;;;;1.88;1.48;;;23.80;87.30;;;;;;5075250;28;20202;-79
2023/07/08 07:57:30;;;;;;;2.63;1.58;;;23.90;87.20;;;;;;5074779;28;20751;-79
2023/07/08 07:59:58;;;;;;;2.95;1.45;;;24.00;87.40;;;;;;5074759;28;20593;-79
2023/07/08 08:02:25;;;;;;;1.92;1.70;;;24.00;87.00;;;;;;5075054;28;20206;-79
2023/07/08 08:04:52;;;;;;;1.58;1.27;;;23.90;86.70;;;;;;5075023;28;20209;-79
2023/07/08 08:07:18;;;;;;;1.77;1.25;;;23.90;87.10;;;;;;5074905;28;20284;-78
2023/07/08 08:09:45;;;;;;;3.28;1.38;;;23.90;88.20;;;;;;5074905;28;20226;-77
2023/07/08 08:12:12;;;;;;;4.40;1.52;;;23.80;88.10;;;;;;5074886;28;20209;-77
2023/07/08 08:14:39;;;;;;;2.08;1.88;;;23.80;88.00;;;;;;5074860;28;20224;-77
2023/07/08 08:17:08;;;;;;;2.15;1.58;;;23.90;88.80;;;;;;5074711;28;20213;-78
2023/07/08 08:19:34;;;;;;;2.42;1.90;;;24.00;89.90;;;;;;5074384;28;20713;-77
2023/07/08 08:22:01;;;;;;;1.70;1.33;;;24.20;89.80;;;;;;5074695;28;20202;-77
2023/07/08 08:24:28;;;;;;;2.00;1.48;;;24.50;89.00;;;;;;5074329;28;20686;-77
2023/07/08 08:26:54;;;;;;;1.77;1.27;;;24.90;87.50;;;;;;5074228;28;20678;-77
2023/07/08 08:29:21;;;;;;;1.60;1.23;;;25.30;85.90;;;;;;5073950;28;20607;-77
2023/07/08 08:31:48;;;;;;;4.85;1.25;;;25.70;83.30;;;;;;5074511;28;20276;-77
2023/07/08 08:34:16;;;;;;;2.22;1.40;;;26.30;83.50;;;;;;5074286;28;20206;-77
2023/07/08 08:36:43;;;;;;;1.30;1.17;;;26.70;82.40;;;;;;5074373;28;20568;-77
2023/07/08 08:39:10;;;;;;;2.05;0.90;;;27.20;80.80;;;;;;5073873;28;20230;-77
2023/07/08 08:41:41;;;;;;;1.17;1.08;;;27.40;78.10;;;;;;5074220;28;20206;-78
2023/07/08 08:44:13;;;;;;;1.05;0.70;;;27.50;77.10;;;;;;5073922;28;20662;-78
2023/07/08 08:46:46;;;;;;;1.10;0.75;;;27.60;74.90;;;;;;5074197;28;20209;-77
2023/07/08 08:49:22;;;;;;;0.80;0.75;;;27.80;75.40;;;;;;5074149;28;20219;-78
2023/07/08 08:51:50;;;;;;;1.08;0.95;;;28.00;76.20;;;;;;5074165;28;20189;-78
2023/07/08 08:54:17;;;;;;;0.90;0.90;;;28.00;73.40;;;;;;5073727;28;20202;-77
2023/07/08 08:56:56;;;;;;;1.33;1.00;;;28.00;75.10;;;;;;5073726;28;20637;-78
2023/07/08 08:59:33;;;;;;;1.13;1.02;;;28.20;72.90;;;;;;5073026;28;20254;-78
2023/07/08 09:02:01;;;;;;;1.80;0.80;;;28.20;73.40;;;;;;5074628;28;20218;-77
2023/07/08 09:04:36;;;;;;;2.67;1.35;;;28.10;73.40;;;;;;5074194;28;20693;-78
2023/07/08 09:07:07;;;;;;;2.35;0.90;;;27.80;73.50;;;;;;5073854;28;20186;-77
2023/07/08 09:09:42;;;;;;;1.05;0.95;;;27.60;75.30;;;;;;5073496;28;20218;-77
2023/07/08 09:12:15;;;;;;;1.25;0.98;;;27.40;74.30;;;;;;5073787;28;20190;-77
2023/07/08 09:14:42;;;;;;;0.57;0.57;;;27.40;74.70;;;;;;5073785;28;20189;-77
2023/07/08 09:17:18;;;;;;;0.85;0.70;;;27.50;75.00;;;;;;5074382;28;20205;-78
2023/07/08 09:19:53;;;;;;;1.02;0.70;;;27.60;72.10;;;;;;5073659;28;20222;-78
2023/07/08 09:22:26;;;;;;;1.48;0.77;;;27.60;70.10;;;;;;5073707;28;20224;-78
2023/07/08 09:24:58;;;;;;;0.80;0.80;;;27.70;71.50;;;;;;5073662;28;20190;-77
2023/07/08 09:27:25;;;;;;;1.67;0.70;;;27.90;72.90;;;;;;5073255;28;20182;-78
2023/07/08 09:29:51;;;;;;;0.70;0.65;;;28.00;70.80;;;;;;5073035;28;20238;-78
2023/07/08 09:32:20;;;;;;;0.88;0.60;;;28.20;70.20;;;;;;5073541;28;20183;-78
2023/07/08 09:34:52;;;;;;;0.90;0.70;;;28.50;70.50;;;;;;5073159;28;20689;-78
2023/07/08 09:37:28;;;;;;;1.00;0.90;;;28.90;70.30;;;;;;5073432;28;20195;-79
2023/07/08 09:39:57;;;;;;;1.30;0.95;;;29.10;69.50;;;;;;5073045;28;20648;-79
2023/07/08 09:42:27;;;;;;;0.77;0.77;;;29.30;69.30;;;;;;5073087;28;20632;-79
2023/07/08 09:44:57;;;;;;;1.35;0.82;;;29.40;67.70;;;;;;5073420;28;20196;-79
2023/07/08 09:47:28;;;;;;;1.00;0.85;;;29.40;66.90;;;;;;5073020;28;20741;-79
2023/07/08 09:49:57;;;;;;;1.10;0.93;;;29.40;67.80;;;;;;5073313;28;20312;-79
2023/07/08 09:52:24;;;;;;;1.00;0.90;;;29.50;67.50;;;;;;5072972;28;20673;-79
2023/07/08 09:54:51;;;;;;;1.35;0.68;;;29.60;67.10;;;;;;5072969;28;20283;-79
2023/07/08 09:57:26;;;;;;;0.77;0.77;;;29.40;67.40;;;;;;5073253;28;20209;-79
2023/07/08 09:59:58;;;;;;;1.00;0.90;;;29.40;69.30;;;;;;5073082;28;20227;-79
2023/07/08 10:02:32;;;;;;;1.27;1.23;;;29.40;69.00;;;;;;5072926;28;20235;-80
2023/07/08 10:05:08;;;;;;;1.10;0.90;;;29.50;69.10;;;;;;5073222;28;20199;-80
2023/07/08 10:07:35;;;;;;;1.00;0.77;;;29.60;69.90;;;;;;5073195;28;20189;-80
2023/07/08 10:10:08;;;;;;;0.93;0.80;;;29.80;69.20;;;;;;5075449;28;20223;-79
2023/07/08 10:12:40;;;;;;;0.95;0.95;;;29.70;68.80;;;;;;5077184;28;20189;-81
2023/07/08 10:15:19;;;;;;;1.20;1.00;;;29.70;68.70;;;;;;5076871;28;20193;-80
2023/07/08 10:17:46;;;;;;;1.95;0.90;;;29.70;66.40;;;;;;5077010;28;20205;-80
2023/07/08 10:20:15;;;;;;;0.70;0.60;;;29.80;67.20;;;;;;5076952;28;20231;-80
2023/07/08 10:22:53;;;;;;;0.93;0.93;;;29.90;67.00;;;;;;5076965;28;20205;-79
2023/07/08 10:25:29;;;;;;;0.95;0.85;;;29.90;66.20;;;;;;5077032;28;20203;-80
2023/07/08 10:28:04;;;;;;;0.75;0.75;;;29.90;65.50;;;;;;5077062;28;20203;-80
2023/07/08 10:30:36;;;;;;;0.90;0.80;;;30.10;66.20;;;;;;5076500;28;20241;-80
2023/07/08 10:33:26;;;;;;;1.33;0.95;;;30.00;66.20;;;;;;5076809;28;20228;-80
2023/07/08 10:36:05;;;;;;;1.00;0.85;;;29.90;67.70;;;;;;5076725;28;20206;-80
2023/07/08 10:38:50;;;;;;;0.90;0.80;;;30.00;68.30;;;;;;5076597;28;20242;-80
2023/07/08 10:41:25;;;;;;;0.80;0.80;;;30.10;67.90;;;;;;5076632;28;20195;-80
2023/07/08 10:44:05;;;;;;;0.90;0.70;;;30.10;66.70;;;;;;5076326;28;20677;-80
2023/07/08 10:46:41;;;;;;;1.08;0.85;;;30.00;66.50;;;;;;5076569;28;20194;-79
2023/07/08 10:49:40;;;;;;;1.25;0.98;;;30.00;67.00;;;;;;5076454;28;20227;-80
2023/07/08 10:52:23;;;;;;;0.80;0.70;;;30.00;67.30;;;;;;5076147;28;20198;-80
2023/07/08 10:55:05;;;;;;;1.58;1.48;;;30.10;67.80;;;;;;5076402;28;20186;-80
2023/07/08 10:57:56;;;;;;;0.70;0.70;;;30.20;65.90;;;;;;5076367;28;20190;-80
2023/07/08 11:00:32;;;;;;;1.13;1.02;;;30.30;65.70;;;;;;5076217;28;20220;-80
2023/07/08 11:03:41;;;;;;;0.60;0.60;;;30.50;66.20;;;;;;5076239;28;20191;-80
2023/07/08 11:06:12;;;;;;;1.27;0.90;;;30.80;64.60;;;;;;5076202;28;20188;-80
2023/07/08 11:08:45;;;;;;;1.00;1.00;;;31.10;64.20;;;;;;5076234;28;20729;-80
2023/07/08 11:11:24;;;;;;;0.75;0.75;;;31.60;61.50;;;;;;5076115;28;20187;-80
2023/07/08 11:13:55;;;;;;;0.73;0.60;;;31.80;61.70;;;;;;5076081;28;20191;-81
2023/07/08 11:16:28;;;;;;;0.60;0.60;;;31.80;60.00;;;;;;5076011;28;20187;-80
2023/07/08 11:19:02;;;;;;;1.15;0.70;;;31.80;61.20;;;;;;5075533;28;20587;-80
2023/07/08 11:21:32;;;;;;;1.40;0.80;;;31.60;59.50;;;;;;5074574;28;20629;-80
2023/07/08 11:24:09;;;;;;;1.00;0.77;;;31.40;59.70;;;;;;5076227;28;20202;-80
2023/07/08 11:26:41;;;;;;;1.27;0.63;;;31.20;59.20;;;;;;5075798;28;20221;-79
2023/07/08 11:29:17;;;;;;;0.93;0.77;;;31.00;58.90;;;;;;5075394;28;20234;-80
2023/07/08 11:31:45;;;;;;;1.80;0.75;;;31.00;57.80;;;;;;5075427;28;20192;-80
2023/07/08 11:34:13;;;;;;;1.08;0.70;;;30.90;58.60;;;;;;5075653;28;20206;-80
2023/07/08 11:36:43;;;;;;;0.70;0.60;;;30.90;60.10;;;;;;5075610;28;20209;-80
2023/07/08 11:39:32;;;;;;;0.60;0.60;;;30.90;59.80;;;;;;5075438;28;20230;-80
2023/07/08 11:42:14;;;;;;;0.60;0.60;;;30.80;57.70;;;;;;5075527;28;20238;-80
2023/07/08 11:44:44;;;;;;;0.60;0.60;;;30.80;57.60;;;;;;5075500;28;20194;-80
2023/07/08 11:47:19;;;;;;;0.60;0.60;;;30.70;57.90;;;;;;5075472;28;20200;-80
2023/07/08 11:49:48;;;;;;;0.68;0.68;;;30.70;58.20;;;;;;5074976;28;20701;-80
2023/07/08 11:52:19;;;;;;;0.60;0.60;;;30.70;57.60;;;;;;5075338;28;20214;-80
2023/07/08 11:54:49;;;;;;;0.88;0.60;;;30.80;56.70;;;;;;5075333;28;20198;-80
2023/07/08 11:57:28;;;;;;;0.60;0.60;;;30.80;58.40;;;;;;5075319;28;20289;-80
2023/07/08 12:00:15;;;;;;;1.25;0.50;;;30.70;56.60;;;;;;5075121;28;20235;-80
2023/07/08 12:02:51;;;;;;;0.80;0.80;;;30.70;57.70;;;;;;5075135;28;20205;-80
2023/07/08 12:05:18;;;;;;;0.40;0.40;;;30.80;57.60;;;;;;5075023;28;20203;-77
2023/07/08 12:07:47;;;;;;;1.65;0.90;;;30.80;56.00;;;;;;5074988;28;20213;-77
2023/07/08 12:10:23;;;;;;;1.00;0.55;;;30.80;55.60;;;;;;5074518;28;20214;-77
2023/07/08 12:12:50;;;;;;;0.98;0.60;;;30.70;56.30;;;;;;5074609;28;20642;-77
2023/07/08 12:15:22;;;;;;;0.50;0.50;;;30.80;56.50;;;;;;5074866;28;20213;-77
2023/07/08 12:17:50;;;;;;;0.60;0.60;;;30.80;56.20;;;;;;5075360;28;20283;-77
2023/07/08 12:20:21;;;;;;;0.90;0.90;;;30.70;56.50;;;;;;5074584;28;20231;-77
2023/07/08 12:22:48;;;;;;;0.85;0.70;;;30.70;56.20;;;;;;5074746;28;20207;-80
2023/07/08 12:25:19;;;;;;;0.77;0.50;;;30.50;55.70;;;;;;5074442;28;20206;-80
2023/07/08 12:27:47;;;;;;;0.95;0.70;;;30.40;57.30;;;;;;5074467;28;20208;-80
2023/07/08 12:30:15;;;;;;;0.60;0.60;;;30.30;56.80;;;;;;5074096;28;20234;-80
2023/07/08 12:32:44;;;;;;;0.60;0.60;;;30.30;56.70;;;;;;5073976;28;20216;-80
2023/07/08 12:35:22;;;;;;;1.27;0.60;;;30.30;56.80;;;;;;5074166;28;20680;-80
2023/07/08 12:37:48;;;;;;;0.60;0.57;;;30.20;56.50;;;;;;5074489;28;20195;-80
2023/07/08 12:40:18;;;;;;;0.60;0.60;;;30.30;57.50;;;;;;5074192;28;20241;-80
2023/07/08 12:42:45;;;;;;;0.57;0.57;;;30.30;56.30;;;;;;5074319;28;20209;-80
2023/07/08 12:45:18;;;;;;;0.80;0.70;;;30.40;57.10;;;;;;5074345;28;20216;-80
2023/07/08 12:47:45;;;;;;;1.40;0.50;;;30.40;56.60;;;;;;5074172;28;20206;-80
2023/07/08 12:50:13;;;;;;;0.82;0.70;;;30.40;57.60;;;;;;5074059;28;20230;-79
2023/07/08 12:52:41;;;;;;;0.77;0.73;;;30.40;57.10;;;;;;5074127;28;20205;-80
2023/07/08 12:55:11;;;;;;;0.60;0.57;;;30.40;57.10;;;;;;5074114;28;20239;-79
2023/07/08 12:57:40;;;;;;;0.70;0.70;;;30.40;56.40;;;;;;5074063;28;20211;-79
2023/07/08 13:00:13;;;;;;;0.50;0.50;;;30.40;56.80;;;;;;5073852;28;20227;-79